createdAt,value
2023-04-25T00:00:27.384Z,34.97
2023-04-25T00:02:54.133Z,35.65
2023-04-25T00:05:20.834Z,34.83
2023-04-25T00:07:47.327Z,34.97
2023-04-25T00:10:13.775Z,33.65
2023-04-25T00:12:41.374Z,34.33
2023-04-25T00:15:08.389Z,34.30
2023-04-25T00:17:35.900Z,33.97
2023-04-25T00:20:05.922Z,35.05
2023-04-25T00:22:32.674Z,33.90
2023-04-25T00:25:01.175Z,33.20
2023-04-25T00:27:28.120Z,32.75
2023-04-25T00:29:54.514Z,32.47
2023-04-25T00:32:20.902Z,32.88
2023-04-25T00:34:47.309Z,32.22
2023-04-25T00:37:14.128Z,32.25
2023-04-25T00:39:40.684Z,31.98
2023-04-25T00:42:07.940Z,31.35
2023-04-25T00:44:35.480Z,30.67
2023-04-25T00:47:03.678Z,29.95
2023-04-25T00:49:30.519Z,29.27
2023-04-25T00:51:57.616Z,29.65
2023-04-25T00:54:24.177Z,29.33
2023-04-25T00:56:50.743Z,29.42
2023-04-25T00:59:19.296Z,28.00
2023-04-25T01:01:46.173Z,27.13
2023-04-25T01:04:13.864Z,27.92
2023-04-25T01:06:41.455Z,26.67
2023-04-25T01:09:08.609Z,27.05
2023-04-25T01:11:35.193Z,27.42
2023-04-25T01:14:03.005Z,25.95
2023-04-25T01:16:30.002Z,26.50
2023-04-25T01:18:56.922Z,26.02
2023-04-25T01:21:23.413Z,25.85
2023-04-25T01:23:51.706Z,25.73
2023-04-25T01:26:18.622Z,24.52
2023-04-25T01:28:46.315Z,26.00
2023-04-25T01:31:13.820Z,24.52
2023-04-25T01:33:40.478Z,24.85
2023-04-25T01:36:07.155Z,25.52
2023-04-25T01:38:34.148Z,24.27
2023-04-25T01:41:00.621Z,24.35
2023-04-25T01:43:27.559Z,24.20
2023-04-25T01:45:54.311Z,24.15
2023-04-25T01:48:20.875Z,22.92
2023-04-25T01:50:47.343Z,22.50
2023-04-25T01:53:15.722Z,24.23
2023-04-25T01:55:42.263Z,22.05
2023-04-25T01:58:10.649Z,22.35
2023-04-25T02:00:39.787Z,21.85
2023-04-25T02:03:06.810Z,20.90
2023-04-25T02:05:38.082Z,20.63
2023-04-25T02:08:06.654Z,21.20
2023-04-25T02:10:33.865Z,18.98
2023-04-25T02:13:00.474Z,19.30
2023-04-25T02:15:26.938Z,19.80
2023-04-25T02:17:56.591Z,19.52
2023-04-25T02:20:24.317Z,20.15
2023-04-25T02:22:51.426Z,18.65
2023-04-25T02:25:20.872Z,18.25
2023-04-25T02:27:48.797Z,17.08
2023-04-25T02:30:16.212Z,18.58
2023-04-25T02:32:42.743Z,17.50
2023-04-25T02:35:15.300Z,18.13
2023-04-25T02:37:41.794Z,19.63
2023-04-25T02:40:09.026Z,19.27
2023-04-25T02:42:36.077Z,17.55
2023-04-25T02:45:03.394Z,18.52
2023-04-25T02:47:30.258Z,18.23
2023-04-25T02:49:56.798Z,16.85
2023-04-25T02:52:23.221Z,17.98
2023-04-25T02:54:49.671Z,17.23
2023-04-25T02:57:16.227Z,15.95
2023-04-25T02:59:42.829Z,16.20
2023-04-25T03:02:09.318Z,15.85
2023-04-25T03:04:35.867Z,15.18
2023-04-25T03:07:02.491Z,15.65
2023-04-25T03:09:28.945Z,14.85
2023-04-25T03:11:55.474Z,15.70
2023-04-25T03:14:21.885Z,13.88
2023-04-25T03:16:48.364Z,13.23
2023-04-25T03:19:17.018Z,15.63
2023-04-25T03:21:44.078Z,14.93
2023-04-25T03:24:11.926Z,13.93
2023-04-25T03:26:38.452Z,13.98
2023-04-25T03:29:04.958Z,15.63
2023-04-25T03:31:32.078Z,14.65
2023-04-25T03:33:58.677Z,15.13
2023-04-25T03:36:25.285Z,14.35
2023-04-25T03:38:51.893Z,15.23
2023-04-25T03:41:18.360Z,15.63
2023-04-25T03:43:44.806Z,14.80
2023-04-25T03:46:11.305Z,14.65
2023-04-25T03:48:37.876Z,14.85
2023-04-25T03:51:04.566Z,15.55
2023-04-25T03:53:31.085Z,15.05
2023-04-25T03:55:57.780Z,14.93
2023-04-25T03:58:25.332Z,14.77
2023-04-25T04:00:51.794Z,14.38
2023-04-25T04:03:18.372Z,16.17
2023-04-25T04:05:46.176Z,14.55
2023-04-25T04:08:12.891Z,14.75
2023-04-25T04:10:39.331Z,14.23
2023-04-25T04:13:05.816Z,14.10
2023-04-25T04:15:34.051Z,15.32
2023-04-25T04:18:03.781Z,14.95
2023-04-25T04:20:31.523Z,15.00
2023-04-25T04:22:58.067Z,14.98
2023-04-25T04:25:25.506Z,13.70
2023-04-25T04:27:55.764Z,15.45
2023-04-25T04:30:25.035Z,15.63
2023-04-25T04:32:52.426Z,14.57
2023-04-25T04:35:18.829Z,14.90
2023-04-25T04:37:46.658Z,14.90
2023-04-25T04:40:16.300Z,13.40
2023-04-25T04:42:43.710Z,14.30
2023-04-25T04:45:11.197Z,14.02
2023-04-25T04:47:38.083Z,14.27
2023-04-25T04:50:05.091Z,14.15
2023-04-25T04:52:31.592Z,14.95
2023-04-25T04:54:57.989Z,14.60
2023-04-25T04:57:24.521Z,14.57
2023-04-25T04:59:51.410Z,14.25
2023-04-25T05:02:18.091Z,13.55
2023-04-25T05:04:44.905Z,13.77
2023-04-25T05:07:11.369Z,14.32
2023-04-25T05:09:38.004Z,14.20
2023-04-25T05:12:04.660Z,13.63
2023-04-25T05:14:31.306Z,15.70
2023-04-25T05:16:57.752Z,14.02
2023-04-25T05:19:24.524Z,14.70
2023-04-25T05:21:51.022Z,13.40
2023-04-25T05:24:29.952Z,14.90
2023-04-25T05:26:56.372Z,13.88
2023-04-25T05:29:22.838Z,14.70
2023-04-25T05:31:49.627Z,15.00
2023-04-25T05:34:17.503Z,13.52
2023-04-25T05:36:43.974Z,13.98
2023-04-25T05:39:11.500Z,15.38
2023-04-25T05:41:37.934Z,14.65
2023-04-25T05:44:04.629Z,14.32
2023-04-25T05:46:31.186Z,14.52
2023-04-25T05:48:57.793Z,13.82
2023-04-25T05:51:24.247Z,14.02
2023-04-25T05:53:51.171Z,14.13
2023-04-25T05:56:18.003Z,13.18
2023-04-25T05:58:45.259Z,15.75
2023-04-25T06:01:13.579Z,14.73
2023-04-25T06:03:40.467Z,13.68
2023-04-25T06:06:07.185Z,14.10
2023-04-25T06:08:33.758Z,13.88
2023-04-25T06:11:00.351Z,14.15
2023-04-25T06:13:26.918Z,13.68
2023-04-25T06:15:53.482Z,13.20
2023-04-25T06:18:20.546Z,13.85
2023-04-25T06:20:47.000Z,13.60
2023-04-25T06:23:13.909Z,14.75
2023-04-25T06:25:40.362Z,14.05
2023-04-25T06:28:06.831Z,15.85
2023-04-25T06:30:33.243Z,15.60
2023-04-25T06:32:59.944Z,13.95
2023-04-25T06:35:26.564Z,14.30
2023-04-25T06:37:53.149Z,14.90
2023-04-25T06:40:19.941Z,15.48
2023-04-25T06:42:46.487Z,15.85
2023-04-25T06:45:12.921Z,15.07
2023-04-25T06:47:39.432Z,14.25
2023-04-25T06:50:06.856Z,14.38
2023-04-25T06:52:33.514Z,13.55
2023-04-25T06:55:00.435Z,14.43
2023-04-25T06:57:26.941Z,13.48
2023-04-25T06:59:53.856Z,14.15
2023-04-25T07:02:22.168Z,12.90
2023-04-25T07:04:48.898Z,13.70
2023-04-25T07:07:15.510Z,13.35
2023-04-25T07:09:42.099Z,14.00
2023-04-25T07:12:08.552Z,13.30
2023-04-25T07:14:34.964Z,12.63
2023-04-25T07:17:01.528Z,14.10
2023-04-25T07:19:30.656Z,12.93
2023-04-25T07:21:57.122Z,13.18
2023-04-25T07:24:23.793Z,12.50
2023-04-25T07:26:50.303Z,13.10
2023-04-25T07:29:16.843Z,13.18
2023-04-25T07:31:43.517Z,13.20
2023-04-25T07:34:09.939Z,13.65
2023-04-25T07:36:36.412Z,12.40
2023-04-25T07:39:02.879Z,13.05
2023-04-25T07:41:29.366Z,12.95
2023-04-25T07:43:55.888Z,13.10
2023-04-25T07:46:22.367Z,13.70
2023-04-25T07:48:49.345Z,13.10
2023-04-25T07:51:16.154Z,12.93
2023-04-25T07:53:42.579Z,13.05
2023-04-25T07:56:08.998Z,13.05
2023-04-25T07:58:35.770Z,12.45
2023-04-25T08:01:02.326Z,12.95
2023-04-25T08:03:28.972Z,12.82
2023-04-25T08:05:55.689Z,12.10
2023-04-25T08:08:22.311Z,11.88
2023-04-25T08:10:49.404Z,12.43
2023-04-25T08:13:16.015Z,12.32
2023-04-25T08:15:42.568Z,11.93
2023-04-25T08:18:09.296Z,12.55
2023-04-25T08:20:36.003Z,12.10
2023-04-25T08:23:02.807Z,12.73
2023-04-25T08:25:29.343Z,12.23
2023-04-25T08:27:57.158Z,12.35
2023-04-25T08:30:23.716Z,12.57
2023-04-25T08:32:50.210Z,12.55
2023-04-25T08:35:18.485Z,11.90
2023-04-25T08:37:45.275Z,11.57
2023-04-25T08:40:16.252Z,13.70
2023-04-25T08:42:43.660Z,11.63
2023-04-25T08:45:11.377Z,11.77
2023-04-25T08:47:40.691Z,11.90
2023-04-25T08:50:07.732Z,14.07
2023-04-25T08:52:40.992Z,14.73
2023-04-25T08:55:10.075Z,12.43
2023-04-25T08:57:37.881Z,12.02
2023-04-25T09:00:05.198Z,12.18
2023-04-25T09:02:32.123Z,11.52
2023-04-25T09:04:58.751Z,11.27
2023-04-25T09:07:26.671Z,12.02
2023-04-25T09:09:53.443Z,11.30
2023-04-25T09:12:20.948Z,11.25
2023-04-25T09:15:11.920Z,11.73
2023-04-25T09:17:41.473Z,11.18
2023-04-25T09:20:13.229Z,11.77
2023-04-25T09:22:40.114Z,13.02
2023-04-25T09:25:11.768Z,12.07
2023-04-25T09:27:59.192Z,11.98
2023-04-25T09:30:33.585Z,19.27
2023-04-25T09:33:12.617Z,26.02
2023-04-25T09:35:46.528Z,27.40
2023-04-25T09:38:15.212Z,26.00
2023-04-25T09:40:46.528Z,26.20
2023-04-25T09:43:23.839Z,28.20
2023-04-25T09:45:52.756Z,24.88
2023-04-25T09:48:23.192Z,26.98
2023-04-25T09:53:25.320Z,18.35
2023-04-25T09:55:52.449Z,17.63
2023-04-25T09:58:19.212Z,17.10
2023-04-25T10:00:45.794Z,14.10
2023-04-25T10:03:13.379Z,14.70
2023-04-25T10:05:41.550Z,14.60
2023-04-25T10:08:08.483Z,13.63
2023-04-25T10:10:37.389Z,10.88
2023-04-25T10:13:06.141Z,11.13
2023-04-25T10:15:39.080Z,11.75
2023-04-25T10:18:07.609Z,11.57
2023-04-25T10:20:34.292Z,11.48
2023-04-25T10:23:21.490Z,13.68
2023-04-25T10:25:48.621Z,14.25
2023-04-25T10:28:15.383Z,13.57
2023-04-25T10:31:05.328Z,13.65
2023-04-25T10:33:40.317Z,13.10
2023-04-25T10:36:14.945Z,11.32
2023-04-25T10:38:43.780Z,11.60
2023-04-25T10:41:11.729Z,13.10
2023-04-25T10:43:39.448Z,13.20
2023-04-25T10:46:24.926Z,11.75
2023-04-25T10:48:56.237Z,11.30
2023-04-25T10:51:30.776Z,12.02
2023-04-25T10:54:05.808Z,12.88
2023-04-25T10:56:41.735Z,13.98
2023-04-25T10:59:13.159Z,12.48
2023-04-25T11:01:50.178Z,13.40
2023-04-25T11:04:34.963Z,11.52
2023-04-25T11:07:14.695Z,11.50
2023-04-25T11:09:42.154Z,11.13
2023-04-25T11:12:10.429Z,12.15
2023-04-25T11:14:37.222Z,11.70
2023-04-25T11:17:04.178Z,11.88
2023-04-25T11:19:31.315Z,11.93
2023-04-25T11:21:59.539Z,12.10
2023-04-25T11:24:36.309Z,11.70
2023-04-25T11:27:04.679Z,12.75
2023-04-25T11:29:32.812Z,13.43
2023-04-25T11:31:59.881Z,12.82
2023-04-25T11:34:27.254Z,13.07
2023-04-25T11:36:54.432Z,11.80
2023-04-25T11:39:21.441Z,14.23
2023-04-25T11:41:48.640Z,14.05
2023-04-25T11:44:19.356Z,14.43
2023-04-25T11:46:46.099Z,12.05
2023-04-25T11:49:13.475Z,14.40
2023-04-25T11:51:44.871Z,13.90
2023-04-25T11:54:12.787Z,14.50
2023-04-25T11:56:43.212Z,11.95
2023-04-25T11:59:10.535Z,13.05
2023-04-25T12:01:39.472Z,13.40
2023-04-25T12:04:21.083Z,12.55
2023-04-25T12:06:50.969Z,13.10
2023-04-25T12:09:28.210Z,13.05
2023-04-25T12:11:56.540Z,10.88
2023-04-25T12:14:27.854Z,11.43
2023-04-25T12:16:58.708Z,13.02
2023-04-25T12:19:25.822Z,11.20
2023-04-25T12:24:27.029Z,13.10
2023-04-25T12:27:02.029Z,12.30
2023-04-25T12:29:34.852Z,12.50
2023-04-25T12:34:36.783Z,13.40
2023-04-25T12:37:03.289Z,12.43
2023-04-25T12:39:29.775Z,10.77
2023-04-25T12:41:56.369Z,10.90
2023-04-25T12:44:22.971Z,11.55
2023-04-25T12:46:49.679Z,10.85
2023-04-25T12:49:19.296Z,10.98
2023-04-25T12:51:46.388Z,10.77
2023-04-25T12:54:12.888Z,11.00
2023-04-25T12:56:39.388Z,11.13
2023-04-25T12:59:05.906Z,11.95
2023-04-25T13:01:34.696Z,11.80
2023-04-25T13:04:02.979Z,11.23
2023-04-25T13:06:31.062Z,12.05
2023-04-25T13:08:57.579Z,11.80
2023-04-25T13:11:24.043Z,18.15
2023-04-25T13:13:50.811Z,23.15
2023-04-25T13:16:17.565Z,22.83
2023-04-25T13:18:44.011Z,22.40
2023-04-25T13:21:12.510Z,21.17
2023-04-25T13:23:39.183Z,21.88
2023-04-25T13:26:05.818Z,22.65
2023-04-25T13:28:32.313Z,23.25
2023-04-25T13:30:58.984Z,20.67
2023-04-25T13:33:25.578Z,18.90
2023-04-25T13:35:56.365Z,16.15
2023-04-25T13:38:23.794Z,14.23
2023-04-25T13:40:52.990Z,22.65
2023-04-25T13:43:23.556Z,25.60
2023-04-25T13:45:51.263Z,26.48
2023-04-25T13:48:18.854Z,25.40
2023-04-25T13:50:46.260Z,25.13
2023-04-25T13:53:13.008Z,24.90
2023-04-25T13:55:39.765Z,24.67
2023-04-25T13:58:09.145Z,23.85
2023-04-25T14:00:40.724Z,22.40
2023-04-25T14:03:10.577Z,18.63
2023-04-25T14:05:41.150Z,17.55
2023-04-25T14:08:09.447Z,17.58
2023-04-25T14:10:36.783Z,16.85
2023-04-25T14:13:04.490Z,14.75
2023-04-25T14:15:34.900Z,13.55
2023-04-25T14:20:28.848Z,24.35
2023-04-25T14:22:56.903Z,17.48
2023-04-25T14:25:24.236Z,14.75
2023-04-25T14:27:51.121Z,17.88
2023-04-25T14:30:21.920Z,12.20
2023-04-25T14:32:50.615Z,11.13
2023-04-25T14:35:17.685Z,11.20
2023-04-25T14:37:44.242Z,10.45
2023-04-25T14:40:11.764Z,10.95
2023-04-25T14:42:38.725Z,10.80
2023-04-25T14:45:07.568Z,11.02
2023-04-25T14:47:34.593Z,11.57
2023-04-25T14:50:02.524Z,10.27
2023-04-25T14:52:29.202Z,10.07
2023-04-25T14:54:55.624Z,9.88
2023-04-25T14:57:22.133Z,10.80
2023-04-25T14:59:48.626Z,11.10
2023-04-25T15:02:15.281Z,11.35
2023-04-25T15:04:42.534Z,11.27
2023-04-25T15:07:09.586Z,11.15
2023-04-25T15:09:36.020Z,10.77
2023-04-25T15:12:03.187Z,11.68
2023-04-25T15:14:29.851Z,10.75
2023-04-25T15:16:56.532Z,11.07
2023-04-25T15:19:23.050Z,11.40
2023-04-25T15:21:49.695Z,10.70
2023-04-25T15:24:17.132Z,10.52
2023-04-25T15:26:43.723Z,11.55
2023-04-25T15:29:10.593Z,11.48
2023-04-25T15:31:37.079Z,11.18
2023-04-25T15:34:03.696Z,10.75
2023-04-25T15:36:31.245Z,11.68
2023-04-25T15:38:58.319Z,10.98
2023-04-25T15:41:26.405Z,11.40
2023-04-25T15:43:54.466Z,10.98
2023-04-25T15:46:23.332Z,10.88
2023-04-25T15:49:34.977Z,10.68
2023-04-25T15:52:02.110Z,10.18
2023-04-25T15:54:28.529Z,10.45
2023-04-25T15:56:54.963Z,10.70
2023-04-25T15:59:21.425Z,11.25
2023-04-25T16:01:47.931Z,10.50
2023-04-25T16:04:15.901Z,10.48
2023-04-25T16:06:42.504Z,10.20
2023-04-25T16:09:10.279Z,10.57
2023-04-25T16:11:36.694Z,9.90
2023-04-25T16:14:03.168Z,10.55
2023-04-25T16:16:29.649Z,10.38
2023-04-25T16:18:56.089Z,10.68
2023-04-25T16:21:22.580Z,10.63
2023-04-25T16:23:49.427Z,11.10
2023-04-25T16:26:15.974Z,10.32
2023-04-25T16:28:42.351Z,11.27
2023-04-25T16:31:08.919Z,10.93
2023-04-25T16:33:35.693Z,11.43
2023-04-25T16:36:02.096Z,10.75
2023-04-25T16:38:28.517Z,11.50
2023-04-25T16:40:55.005Z,10.98
2023-04-25T16:43:21.564Z,10.40
2023-04-25T16:45:47.958Z,10.13
2023-04-25T16:48:14.462Z,11.40
2023-04-25T16:50:40.960Z,10.45
2023-04-25T16:53:07.363Z,10.10
2023-04-25T16:55:33.767Z,9.98
2023-04-25T16:58:00.264Z,10.73
2023-04-25T17:00:26.696Z,10.13
2023-04-25T17:02:53.440Z,10.65
2023-04-25T17:05:20.027Z,10.35
2023-04-25T17:07:46.449Z,10.93
2023-04-25T17:10:13.024Z,15.90
2023-04-25T17:12:39.542Z,18.50
2023-04-25T17:15:07.072Z,18.10
2023-04-25T17:17:33.536Z,15.68
2023-04-25T17:20:00.017Z,15.75
2023-04-25T17:22:26.487Z,14.77
2023-04-25T17:24:54.036Z,14.32
2023-04-25T17:27:20.646Z,13.00
2023-04-25T17:29:47.056Z,14.25
2023-04-25T17:32:15.604Z,23.42
2023-04-25T17:34:43.602Z,24.17
2023-04-25T17:37:15.242Z,24.13
2023-04-25T17:39:42.850Z,23.50
2023-04-25T17:42:10.040Z,23.65
2023-04-25T17:44:36.493Z,21.40
2023-04-25T17:47:02.904Z,21.67
2023-04-25T17:49:30.079Z,21.08
2023-04-25T17:51:56.568Z,21.08
2023-04-25T17:54:23.218Z,20.70
2023-04-25T17:56:49.748Z,20.08
2023-04-25T17:59:17.470Z,18.20
2023-04-25T18:01:47.676Z,17.75
2023-04-25T18:04:14.652Z,16.80
2023-04-25T18:06:41.261Z,15.73
2023-04-25T18:09:25.961Z,15.13
2023-04-25T18:11:53.159Z,14.77
2023-04-25T18:14:21.375Z,15.65
2023-04-25T18:16:53.562Z,12.95
2023-04-25T18:19:23.404Z,14.20
2023-04-25T18:21:54.732Z,13.18
2023-04-25T18:24:23.682Z,13.57
2023-04-25T18:26:51.183Z,12.27
2023-04-25T18:29:29.383Z,12.10
2023-04-25T18:31:59.955Z,11.55
2023-04-25T18:34:27.604Z,11.90
2023-04-25T18:36:56.303Z,12.15
2023-04-25T18:39:29.186Z,11.90
2023-04-25T18:42:04.192Z,14.07
2023-04-25T18:44:36.358Z,12.50
2023-04-25T18:47:02.992Z,12.25
2023-04-25T18:49:29.496Z,15.68
2023-04-25T18:51:57.360Z,24.27
2023-04-25T18:54:23.849Z,24.40
2023-04-25T18:56:50.461Z,23.40
2023-04-25T18:59:18.445Z,23.15
2023-04-25T19:01:45.774Z,21.75
2023-04-25T19:04:12.293Z,20.02
2023-04-25T19:06:38.886Z,18.67
2023-04-25T19:09:05.414Z,18.38
2023-04-25T19:11:31.982Z,18.27
2023-04-25T19:13:58.452Z,17.60
2023-04-25T19:16:26.299Z,18.08
2023-04-25T19:18:55.428Z,18.08
2023-04-25T19:21:22.677Z,18.13
2023-04-25T19:23:49.227Z,17.40
2023-04-25T19:26:16.070Z,16.85
2023-04-25T19:28:44.478Z,17.50
2023-04-25T19:31:11.800Z,17.60
2023-04-25T19:33:38.374Z,18.58
2023-04-25T19:36:04.982Z,17.88
2023-04-25T19:38:31.524Z,16.92
2023-04-25T19:40:58.017Z,16.75
2023-04-25T19:43:24.560Z,17.58
2023-04-25T19:45:51.328Z,17.10
2023-04-25T19:48:17.772Z,17.20
2023-04-25T19:50:44.255Z,16.90
2023-04-25T19:53:10.893Z,17.05
2023-04-25T19:55:37.413Z,16.70
2023-04-25T19:58:04.295Z,17.63
2023-04-25T20:00:30.936Z,16.52
2023-04-25T20:02:57.415Z,16.38
2023-04-25T20:05:23.953Z,15.70
2023-04-25T20:07:50.518Z,17.23
2023-04-25T20:10:17.459Z,17.30
2023-04-25T20:12:44.726Z,17.63
2023-04-25T20:15:11.875Z,17.00
2023-04-25T20:17:44.450Z,16.77
2023-04-25T20:20:12.036Z,16.92
2023-04-25T20:22:40.286Z,17.10
2023-04-25T20:25:09.837Z,16.58
2023-04-25T20:27:39.932Z,16.70
2023-04-25T20:30:08.402Z,17.08
2023-04-25T20:32:36.688Z,16.35
2023-04-25T20:35:04.917Z,16.42
2023-04-25T20:37:34.854Z,16.38
2023-04-25T20:40:05.953Z,14.98
2023-04-25T20:42:33.030Z,15.85
2023-04-25T20:44:59.603Z,15.95
2023-04-25T20:47:27.521Z,16.33
2023-04-25T20:49:54.005Z,15.25
2023-04-25T20:52:20.562Z,15.18
2023-04-25T20:54:50.625Z,15.88
2023-04-25T20:57:17.721Z,15.65
2023-04-25T20:59:44.728Z,15.18
2023-04-25T21:02:15.581Z,14.60
2023-04-25T21:04:45.775Z,14.20
2023-04-25T21:07:13.235Z,13.98
2023-04-25T21:09:40.886Z,14.15
2023-04-25T21:12:07.634Z,14.23
2023-04-25T21:14:34.796Z,13.40
2023-04-25T21:17:01.382Z,12.57
2023-04-25T21:19:28.100Z,13.38
2023-04-25T21:21:54.655Z,12.88
2023-04-25T21:24:21.932Z,12.82
2023-04-25T21:26:48.453Z,13.23
2023-04-25T21:29:14.973Z,12.07
2023-04-25T21:31:42.401Z,12.07
2023-04-25T21:34:09.057Z,12.13
2023-04-25T21:36:35.496Z,11.68
2023-04-25T21:39:02.342Z,11.50
2023-04-25T21:41:29.115Z,11.38
2023-04-25T21:43:55.868Z,11.32
2023-04-25T21:46:24.388Z,11.98
2023-04-25T21:48:51.665Z,11.32
2023-04-25T21:51:18.738Z,10.85
2023-04-25T21:53:45.253Z,15.80
2023-04-25T21:56:12.417Z,29.75
2023-04-25T21:58:38.917Z,31.45
2023-04-25T22:01:05.408Z,31.65
2023-04-25T22:03:33.136Z,31.33
2023-04-25T22:05:59.750Z,31.27
2023-04-25T22:08:26.247Z,30.52
2023-04-25T22:10:55.166Z,30.25
2023-04-25T22:13:22.888Z,30.08
2023-04-25T22:15:49.585Z,31.08
2023-04-25T22:18:16.313Z,31.55
2023-04-25T22:20:44.170Z,31.38
2023-04-25T22:23:12.015Z,31.90
2023-04-25T22:25:38.702Z,31.38
2023-04-25T22:28:05.317Z,30.30
2023-04-25T22:30:34.996Z,30.50
2023-04-25T22:33:01.404Z,30.02
2023-04-25T22:35:28.133Z,30.35
2023-04-25T22:37:54.535Z,31.48
2023-04-25T22:40:21.051Z,32.00
2023-04-25T22:42:47.569Z,31.17
2023-04-25T22:45:16.203Z,31.95
2023-04-25T22:47:43.215Z,31.92
2023-04-25T22:50:13.972Z,31.30
2023-04-25T22:52:42.315Z,31.90
2023-04-25T22:55:10.221Z,32.63
2023-04-25T22:57:38.617Z,32.38
2023-04-25T23:00:15.719Z,32.33
2023-04-25T23:02:45.826Z,33.03
2023-04-25T23:05:13.381Z,31.83
2023-04-25T23:07:44.648Z,32.75
2023-04-25T23:10:14.801Z,31.80
2023-04-25T23:12:41.396Z,31.98
2023-04-25T23:15:08.683Z,32.53
2023-04-25T23:17:35.277Z,31.77
2023-04-25T23:20:01.811Z,31.80
2023-04-25T23:22:28.576Z,32.20
2023-04-25T23:24:55.035Z,32.03
2023-04-25T23:27:21.556Z,33.08
2023-04-25T23:29:55.312Z,32.22
2023-04-25T23:32:22.568Z,32.22
2023-04-25T23:34:49.277Z,30.92
2023-04-25T23:37:15.667Z,31.13
2023-04-25T23:39:48.196Z,32.08
2023-04-25T23:42:14.602Z,32.35
2023-04-25T23:44:41.493Z,32.50
2023-04-25T23:47:07.909Z,33.20
2023-04-25T23:49:41.540Z,33.00
2023-04-25T23:52:08.228Z,32.70
2023-04-25T23:54:34.859Z,31.83
2023-04-25T23:57:04.246Z,32.72
2023-04-25T23:59:31.546Z,32.75
